Time;durP1;ratioP1;P1;durP2;ratioP2;P2;SDS_P1;SDS_P2;PMS_P1;PMS_P2;Temp;Humidity;BMP_temperature;BMP_pressure;BME280_temperature;BME280_humidity;BME280_pressure;Samples;Min_cycle;Max_cycle;Signal;HPM_P1;HPM_P2
2022/04/09 00:01:20;;;;;;;7.38;2.50;;;;;;;;;;5052168;28;20148;-77
2022/04/09 00:03:47;;;;;;;10.93;2.70;;;;;;;;;;5050282;28;20084;-83
2022/04/09 00:06:14;;;;;;;19.38;3.05;;;;;;;;;;5072516;28;20123;-82
2022/04/09 00:08:42;;;;;;;14.43;3.00;;;;;;;;;;5055151;28;20084;-82
2022/04/09 00:11:09;;;;;;;7.50;2.15;;;;;;;;;;5073530;28;20155;-82
2022/04/09 00:13:36;;;;;;;11.23;2.65;;;;;;;;;;5055281;28;20083;-82
2022/04/09 00:16:04;;;;;;;9.52;2.53;;;;;;;;;;5053656;28;20131;-81
2022/04/09 00:18:31;;;;;;;10.45;2.53;;;;;;;;;;5053253;28;20052;-82
2022/04/09 00:20:58;;;;;;;11.02;2.78;;;;;;;;;;5052989;28;20049;-83
2022/04/09 00:23:26;;;;;;;8.52;2.40;;;;;;;;;;5063180;28;20084;-83
2022/04/09 00:25:53;;;;;;;13.40;2.63;;;;;;;;;;5039795;28;20140;-84
2022/04/09 00:28:20;;;;;;;9.07;2.30;;;;;;;;;;5068423;28;20109;-83
2022/04/09 00:30:47;;;;;;;14.38;2.88;;;;;;;;;;5070054;28;20151;-84
2022/04/09 00:33:14;;;;;;;12.20;2.40;;;;;;;;;;5072717;28;20109;-83
2022/04/09 00:35:42;;;;;;;11.80;2.45;;;;;;;;;;5072723;28;20132;-83
2022/04/09 00:38:09;;;;;;;11.27;2.78;;;;;;;;;;5072878;28;20083;-83
2022/04/09 00:40:37;;;;;;;4.88;2.10;;;;;;;;;;5072624;28;20192;-83
2022/04/09 00:43:04;;;;;;;7.03;1.77;;;;;;;;;;5061130;28;20140;-83
2022/04/09 00:45:31;;;;;;;7.82;2.33;;;;;;;;;;5067875;28;20080;-83
2022/04/09 00:47:59;;;;;;;12.90;2.08;;;;;;;;;;5055108;28;20052;-83
2022/04/09 00:50:26;;;;;;;10.57;3.40;;;;;;;;;;5052959;28;20147;-84
2022/04/09 00:52:55;;;;;;;12.10;2.80;;;;;;;;;;5068051;28;20048;-83
2022/04/09 00:56:13;;;;;;;12.85;2.75;;;;;;;;;;5069321;28;20459;-82
2022/04/09 00:58:13;;;;;;;7.60;1.67;;;;;;;;;;5072058;28;20048;-83
2022/04/09 01:00:41;;;;;;;20.70;2.47;;;;;;;;;;5048663;28;20052;-83
2022/04/09 01:03:12;;;;;;;12.27;2.42;;;;;;;;;;5072131;28;20493;-83
2022/04/09 01:05:40;;;;;;;13.75;2.00;;;;;;;;;;5045809;28;20210;-82
2022/04/09 01:08:07;;;;;;;11.65;2.20;;;;;;;;;;5066933;28;20099;-83
2022/04/09 01:10:35;;;;;;;14.88;2.85;;;;;;;;;;5051508;28;20069;-83
2022/04/09 01:13:02;;;;;;;8.38;1.70;;;;;;;;;;5051244;28;20096;-83
2022/04/09 01:15:29;;;;;;;6.88;2.80;;;;;;;;;;5066622;28;20127;-83
2022/04/09 01:17:57;;;;;;;7.22;2.03;;;;;;;;;;5054113;28;20056;-82
2022/04/09 01:20:29;;;;;;;6.95;2.10;;;;;;;;;;5071306;28;20523;-83
2022/04/09 01:22:56;;;;;;;13.77;2.95;;;;;;;;;;5060862;28;20049;-82
2022/04/09 01:25:23;;;;;;;14.40;2.85;;;;;;;;;;5058134;28;20082;-82
2022/04/09 01:27:51;;;;;;;12.77;2.30;;;;;;;;;;5051171;28;20472;-83
2022/04/09 01:30:19;;;;;;;11.18;2.40;;;;;;;;;;5051003;28;20139;-82
2022/04/09 01:32:46;;;;;;;9.63;2.33;;;;;;;;;;5052534;28;20062;-82
2022/04/09 01:35:14;;;;;;;5.93;2.50;;;;;;;;;;5071265;28;20048;-82
2022/04/09 01:37:41;;;;;;;10.55;2.28;;;;;;;;;;5071941;28;20083;-82
2022/04/09 01:40:08;;;;;;;14.07;2.75;;;;;;;;;;5042199;28;20126;-82
2022/04/09 01:42:36;;;;;;;15.65;2.50;;;;;;;;;;5051491;28;20045;-82
2022/04/09 01:45:07;;;;;;;14.57;2.13;;;;;;;;;;5069736;28;20091;-82
2022/04/09 01:47:40;;;;;;;15.20;2.85;;;;;;;;;;5022918;28;20781;-83
2022/04/09 01:50:08;;;;;;;14.50;3.22;;;;;;;;;;5013863;28;20080;-82
2022/04/09 01:52:35;;;;;;;11.00;2.58;;;;;;;;;;5069949;28;20056;-82
2022/04/09 01:55:03;;;;;;;17.08;2.65;;;;;;;;;;5052871;28;20116;-82
2022/04/09 01:57:30;;;;;;;10.82;2.45;;;;;;;;;;5069826;28;20467;-82
2022/04/09 01:59:57;;;;;;;17.08;2.35;;;;;;;;;;5053488;28;20576;-82
2022/04/09 02:02:25;;;;;;;16.27;2.53;;;;;;;;;;5052728;28;20462;-83
2022/04/09 02:04:53;;;;;;;16.67;3.17;;;;;;;;;;5050605;28;20049;-83
2022/04/09 02:07:20;;;;;;;9.55;2.03;;;;;;;;;;5065846;28;20045;-83
2022/04/09 02:09:47;;;;;;;11.43;2.55;;;;;;;;;;5051072;28;20528;-83
2022/04/09 02:12:15;;;;;;;9.20;2.65;;;;;;;;;;5050982;28;20152;-82
2022/04/09 02:14:42;;;;;;;9.38;2.28;;;;;;;;;;5059388;28;20083;-82
2022/04/09 02:17:09;;;;;;;12.00;2.40;;;;;;;;;;5055496;28;20379;-82
2022/04/09 02:19:36;;;;;;;13.30;2.15;;;;;;;;;;5051180;28;20081;-82
2022/04/09 02:22:04;;;;;;;9.68;2.25;;;;;;;;;;5050797;28;20053;-82
2022/04/09 02:24:31;;;;;;;18.77;2.40;;;;;;;;;;5068908;28;20505;-83
2022/04/09 02:26:58;;;;;;;27.38;3.15;;;;;;;;;;5056446;28;20734;-83
2022/04/09 02:29:26;;;;;;;10.57;2.30;;;;;;;;;;5050326;28;20076;-82
2022/04/09 02:31:53;;;;;;;16.48;2.92;;;;;;;;;;5068709;28;20700;-82
2022/04/09 02:34:21;;;;;;;21.60;2.75;;;;;;;;;;5052786;28;20772;-82
2022/04/09 02:36:49;;;;;;;12.48;2.67;;;;;;;;;;5038776;28;20103;-83
2022/04/09 02:39:21;;;;;;;16.52;3.08;;;;;;;;;;5050822;28;20095;-83
2022/04/09 02:41:52;;;;;;;18.25;2.47;;;;;;;;;;5050257;28;20045;-82
2022/04/09 02:44:20;;;;;;;9.38;2.28;;;;;;;;;;5049939;28;20064;-83
2022/04/09 02:46:47;;;;;;;17.48;2.83;;;;;;;;;;5047765;28;20140;-77
2022/04/09 02:49:16;;;;;;;18.67;3.38;;;;;;;;;;5046928;28;20130;-76
2022/04/09 02:51:45;;;;;;;8.48;3.00;;;;;;;;;;5040644;28;20059;-76
2022/04/09 02:54:16;;;;;;;14.73;3.05;;;;;;;;;;5040493;28;20084;-77
2022/04/09 02:56:44;;;;;;;11.50;2.33;;;;;;;;;;5049395;28;20076;-76
2022/04/09 02:59:12;;;;;;;11.50;2.72;;;;;;;;;;5065310;28;20088;-76
2022/04/09 03:01:41;;;;;;;14.98;2.72;;;;;;;;;;5047000;28;20086;-77
2022/04/09 03:04:09;;;;;;;13.13;2.75;;;;;;;;;;5047385;28;20116;-76
2022/04/09 03:06:38;;;;;;;17.45;3.03;;;;;;;;;;5045473;28;20111;-77
2022/04/09 03:09:06;;;;;;;17.73;2.47;;;;;;;;;;5061797;28;20555;-76
2022/04/09 03:11:34;;;;;;;13.10;3.03;;;;;;;;;;5042659;28;20053;-76
2022/04/09 03:14:02;;;;;;;14.07;2.78;;;;;;;;;;5028987;28;20052;-82
2022/04/09 03:16:29;;;;;;;11.10;2.85;;;;;;;;;;5032766;28;20255;-84
2022/04/09 03:18:56;;;;;;;10.93;2.97;;;;;;;;;;5032441;28;20084;-83
2022/04/09 03:21:24;;;;;;;21.52;2.72;;;;;;;;;;5061060;28;20083;-82
2022/04/09 03:23:51;;;;;;;16.38;2.95;;;;;;;;;;5034586;28;20073;-82
2022/04/09 03:26:19;;;;;;;17.42;2.97;;;;;;;;;;5060525;28;20136;-82
2022/04/09 03:28:46;;;;;;;19.02;3.97;;;;;;;;;;5067603;28;20143;-81
2022/04/09 03:31:13;;;;;;;13.73;3.00;;;;;;;;;;5039080;28;20502;-81
2022/04/09 03:33:41;;;;;;;18.05;2.72;;;;;;;;;;5028751;28;20085;-82
2022/04/09 03:36:08;;;;;;;13.40;3.08;;;;;;;;;;5045869;28;20703;-82
2022/04/09 03:38:35;;;;;;;18.15;3.90;;;;;;;;;;5051980;28;20102;-82
2022/04/09 03:41:03;;;;;;;17.73;3.17;;;;;;;;;;5059623;28;20434;-82
2022/04/09 03:43:30;;;;;;;18.77;3.22;;;;;;;;;;5043168;28;20084;-82
2022/04/09 03:45:58;;;;;;;15.23;2.70;;;;;;;;;;5068546;28;20092;-82
2022/04/09 03:48:25;;;;;;;23.45;3.63;;;;;;;;;;5071118;28;20068;-82
2022/04/09 03:50:52;;;;;;;22.08;3.38;;;;;;;;;;5068702;28;20083;-82
2022/04/09 03:53:20;;;;;;;9.13;2.40;;;;;;;;;;5038286;28;20182;-82
2022/04/09 03:55:48;;;;;;;22.35;3.22;;;;;;;;;;5050723;28;20068;-83
2022/04/09 03:58:16;;;;;;;13.10;2.58;;;;;;;;;;5050607;28;20088;-82
2022/04/09 04:00:43;;;;;;;14.95;3.20;;;;;;;;;;5068265;28;20053;-82
2022/04/09 04:03:11;;;;;;;18.05;3.35;;;;;;;;;;5069198;28;20460;-82
2022/04/09 04:05:39;;;;;;;22.67;3.83;;;;;;;;;;5069216;28;20044;-83
2022/04/09 04:08:07;;;;;;;15.70;3.50;;;;;;;;;;5058798;28;20587;-82
2022/04/09 04:10:37;;;;;;;12.32;3.42;;;;;;;;;;5055056;28;20520;-77
2022/04/09 04:13:06;;;;;;;19.13;3.10;;;;;;;;;;5038518;28;20088;-77
2022/04/09 04:15:34;;;;;;;18.45;2.97;;;;;;;;;;5059411;28;20147;-77
2022/04/09 04:18:02;;;;;;;23.90;4.55;;;;;;;;;;5027245;28;20057;-77
2022/04/09 04:20:29;;;;;;;19.05;3.20;;;;;;;;;;5026300;28;20061;-77
2022/04/09 04:22:58;;;;;;;14.60;2.88;;;;;;;;;;5043292;28;20129;-77
2022/04/09 04:25:26;;;;;;;11.50;2.58;;;;;;;;;;5063080;28;20099;-77
2022/04/09 04:27:54;;;;;;;15.57;3.25;;;;;;;;;;5063205;28;20049;-77
2022/04/09 04:30:21;;;;;;;14.32;2.20;;;;;;;;;;5058221;28;20148;-77
2022/04/09 04:32:48;;;;;;;27.13;3.45;;;;;;;;;;5048219;28;20125;-77
2022/04/09 04:35:16;;;;;;;20.13;3.35;;;;;;;;;;5054731;28;20085;-77
2022/04/09 04:37:44;;;;;;;24.15;2.95;;;;;;;;;;5029667;28;20081;-83
2022/04/09 04:40:12;;;;;;;23.80;3.00;;;;;;;;;;5032693;28;20498;-83
2022/04/09 04:42:40;;;;;;;22.77;4.30;;;;;;;;;;5033028;28;20057;-82
2022/04/09 04:45:07;;;;;;;21.88;3.97;;;;;;;;;;5055488;28;20072;-83
2022/04/09 04:47:42;;;;;;;23.05;2.95;;;;;;;;;;5035451;28;20045;-77
2022/04/09 04:50:09;;;;;;;17.27;2.83;;;;;;;;;;5049508;28;20460;-76
2022/04/09 04:52:36;;;;;;;8.38;2.58;;;;;;;;;;5049062;28;20048;-76
2022/04/09 04:55:04;;;;;;;15.30;2.78;;;;;;;;;;5049748;28;20132;-77
2022/04/09 04:57:40;;;;;;;20.65;3.15;;;;;;;;;;5049048;28;20059;-77
2022/04/09 05:00:08;;;;;;;22.13;3.53;;;;;;;;;;5034756;28;20091;-77
2022/04/09 05:02:35;;;;;;;13.23;3.00;;;;;;;;;;5061585;28;20056;-77
2022/04/09 05:05:03;;;;;;;17.80;3.30;;;;;;;;;;5029175;28;20474;-77
2022/04/09 05:07:41;;;;;;;19.40;3.70;;;;;;;;;;5067817;28;20076;-77
2022/04/09 05:10:09;;;;;;;13.13;3.35;;;;;;;;;;5040219;28;20103;-77
2022/04/09 05:12:37;;;;;;;17.35;3.90;;;;;;;;;;5045674;28;20059;-77
2022/04/09 05:15:05;;;;;;;18.83;3.08;;;;;;;;;;5048945;28;20053;-77
2022/04/09 05:17:32;;;;;;;21.23;4.32;;;;;;;;;;5044734;28;20754;-77
2022/04/09 05:20:01;;;;;;;25.33;3.63;;;;;;;;;;5047624;28;20088;-76
2022/04/09 05:22:28;;;;;;;13.77;3.08;;;;;;;;;;5059412;28;20136;-77
2022/04/09 05:24:56;;;;;;;21.15;3.28;;;;;;;;;;5047086;28;20055;-76
2022/04/09 05:27:24;;;;;;;16.45;3.67;;;;;;;;;;5066374;28;20072;-77
2022/04/09 05:29:51;;;;;;;22.30;3.78;;;;;;;;;;5070975;28;20048;-76
2022/04/09 05:32:18;;;;;;;16.25;3.20;;;;;;;;;;5050760;28;20087;-76
2022/04/09 05:34:46;;;;;;;19.38;3.28;;;;;;;;;;5031252;28;20049;-77
2022/04/09 05:37:13;;;;;;;32.05;5.13;;;;;;;;;;5047898;28;20052;-76
2022/04/09 05:39:42;;;;;;;21.50;4.32;;;;;;;;;;5063657;28;20122;-77
2022/04/09 05:42:10;;;;;;;25.55;4.43;;;;;;;;;;5049925;28;20060;-76
2022/04/09 05:44:37;;;;;;;11.95;4.10;;;;;;;;;;5046924;28;20056;-76
2022/04/09 05:47:05;;;;;;;25.23;3.40;;;;;;;;;;5061465;28;20126;-76
2022/04/09 05:49:33;;;;;;;24.65;4.55;;;;;;;;;;5066442;28;20080;-77
2022/04/09 05:52:01;;;;;;;28.70;3.75;;;;;;;;;;5062083;28;20151;-78
2022/04/09 05:54:28;;;;;;;30.83;3.20;;;;;;;;;;5046515;28;20099;-77
2022/04/09 05:56:55;;;;;;;31.42;4.25;;;;;;;;;;5036186;28;20053;-77
2022/04/09 05:59:25;;;;;;;24.25;3.95;;;;;;;;;;5046505;28;20124;-77
2022/04/09 06:01:53;;;;;;;21.88;3.72;;;;;;;;;;5032836;28;20102;-78
2022/04/09 06:04:21;;;;;;;21.90;3.53;;;;;;;;;;5048305;28;20557;-78
2022/04/09 06:06:49;;;;;;;13.02;3.17;;;;;;;;;;5058006;28;20091;-78
2022/04/09 06:09:16;;;;;;;17.17;3.13;;;;;;;;;;5046766;28;20671;-78
2022/04/09 06:11:44;;;;;;;19.33;3.85;;;;;;;;;;5047970;28;20132;-79
2022/04/09 06:14:11;;;;;;;23.50;3.95;;;;;;;;;;5046666;28;20096;-78
2022/04/09 06:16:40;;;;;;;22.67;3.83;;;;;;;;;;5038082;28;20057;-78
2022/04/09 06:19:08;;;;;;;23.67;3.55;;;;;;;;;;5010400;28;20124;-79
2022/04/09 06:21:35;;;;;;;23.20;3.63;;;;;;;;;;5030182;28;20052;-78
2022/04/09 06:24:03;;;;;;;19.45;3.60;;;;;;;;;;5050150;28;20092;-78
2022/04/09 06:26:31;;;;;;;23.25;3.90;;;;;;;;;;5048103;28;20736;-80
2022/04/09 06:28:58;;;;;;;17.45;3.38;;;;;;;;;;5030426;28;20096;-80
2022/04/09 06:31:25;;;;;;;14.02;3.58;;;;;;;;;;5034766;28;20128;-81
2022/04/09 06:33:53;;;;;;;22.40;3.05;;;;;;;;;;5031504;28;20643;-78
2022/04/09 06:36:20;;;;;;;31.42;3.30;;;;;;;;;;5033593;28;20068;-77
2022/04/09 06:38:47;;;;;;;13.77;3.83;;;;;;;;;;5027816;28;20079;-77
2022/04/09 06:41:18;;;;;;;20.63;3.65;;;;;;;;;;5026192;28;20160;-77
2022/04/09 06:43:46;;;;;;;14.65;2.58;;;;;;;;;;5048026;28;20057;-77
2022/04/09 06:46:14;;;;;;;14.43;3.00;;;;;;;;;;5040850;28;20045;-78
2022/04/09 06:48:41;;;;;;;12.60;2.75;;;;;;;;;;5061114;28;20147;-80
2022/04/09 06:51:09;;;;;;;10.13;2.58;;;;;;;;;;5045482;28;20080;-80
2022/04/09 06:53:36;;;;;;;17.85;2.83;;;;;;;;;;5028250;28;20579;-78
2022/04/09 06:56:04;;;;;;;17.60;3.22;;;;;;;;;;5045538;28;20094;-78
2022/04/09 06:58:32;;;;;;;12.82;2.70;;;;;;;;;;5032668;28;20052;-80
2022/04/09 07:00:59;;;;;;;16.13;2.92;;;;;;;;;;5011830;28;20065;-79
2022/04/09 07:03:28;;;;;;;14.68;2.05;;;;;;;;;;5010305;28;20083;-80
2022/04/09 07:05:55;;;;;;;14.75;2.78;;;;;;;;;;5051238;28;20048;-80
2022/04/09 07:08:22;;;;;;;10.02;2.05;;;;;;;;;;5062664;28;20041;-77
2022/04/09 07:10:50;;;;;;;6.78;1.73;;;;;;;;;;5044879;28;20085;-78
2022/04/09 07:13:17;;;;;;;9.65;1.70;;;;;;;;;;5041963;28;20128;-78
2022/04/09 07:15:44;;;;;;;11.90;2.08;;;;;;;;;;5028479;28;20116;-78
2022/04/09 07:18:11;;;;;;;12.10;2.15;;;;;;;;;;5049200;28;20676;-78
2022/04/09 07:20:40;;;;;;;11.95;2.00;;;;;;;;;;5046511;28;20139;-79
2022/04/09 07:23:08;;;;;;;9.82;2.05;;;;;;;;;;5045740;28;20049;-78
2022/04/09 07:25:36;;;;;;;9.40;1.85;;;;;;;;;;5046862;28;20935;-78
2022/04/09 07:28:04;;;;;;;7.80;2.03;;;;;;;;;;5048711;28;20691;-78
2022/04/09 07:30:31;;;;;;;11.10;2.20;;;;;;;;;;5048720;28;20111;-78
2022/04/09 07:32:58;;;;;;;10.23;1.67;;;;;;;;;;5047107;28;20766;-78
2022/04/09 07:35:26;;;;;;;7.55;2.00;;;;;;;;;;5058940;28;20137;-78
2022/04/09 07:37:55;;;;;;;4.88;1.55;;;;;;;;;;5041358;28;20072;-78
2022/04/09 07:40:30;;;;;;;22.50;2.78;;;;;;;;;;5045741;28;20092;-77
2022/04/09 07:42:58;;;;;;;16.42;2.28;;;;;;;;;;5056156;28;20060;-77
2022/04/09 07:45:26;;;;;;;6.20;1.90;;;;;;;;;;5063410;28;20139;-78
2022/04/09 07:47:54;;;;;;;11.25;2.22;;;;;;;;;;5050747;28;20044;-77
2022/04/09 07:50:22;;;;;;;11.50;1.83;;;;;;;;;;5049786;28;20151;-77
2022/04/09 07:52:49;;;;;;;7.85;1.95;;;;;;;;;;5056783;28;20131;-77
2022/04/09 07:55:17;;;;;;;5.88;1.65;;;;;;;;;;5030598;28;20632;-77
2022/04/09 07:57:45;;;;;;;8.63;2.00;;;;;;;;;;5068273;28;20219;-78
2022/04/09 08:00:13;;;;;;;14.52;2.60;;;;;;;;;;5049738;28;20147;-77
2022/04/09 08:02:40;;;;;;;11.70;2.15;;;;;;;;;;5048459;28;20831;-77
2022/04/09 08:05:10;;;;;;;13.43;2.33;;;;;;;;;;5047586;28;20935;-78
2022/04/09 08:07:38;;;;;;;5.45;1.80;;;;;;;;;;5058437;28;20157;-78
2022/04/09 08:10:06;;;;;;;8.40;2.30;;;;;;;;;;5067240;28;20072;-78
2022/04/09 08:12:33;;;;;;;10.55;2.08;;;;;;;;;;5049611;28;20455;-77
2022/04/09 08:15:01;;;;;;;18.00;2.15;;;;;;;;;;5038298;28;20138;-77
2022/04/09 08:17:28;;;;;;;11.95;2.25;;;;;;;;;;5067758;28;20623;-77
2022/04/09 08:19:56;;;;;;;10.25;2.35;;;;;;;;;;5067673;28;20144;-78
2022/04/09 08:22:24;;;;;;;12.43;2.20;;;;;;;;;;5035395;28;20040;-77
2022/04/09 08:24:51;;;;;;;7.45;1.67;;;;;;;;;;5047539;28;20111;-77
2022/04/09 08:27:19;;;;;;;10.30;1.83;;;;;;;;;;5064306;28;20052;-77
2022/04/09 08:29:46;;;;;;;10.48;2.08;;;;;;;;;;5050262;28;20474;-77
2022/04/09 08:32:14;;;;;;;5.25;1.50;;;;;;;;;;5034033;28;20072;-78
2022/04/09 08:34:41;;;;;;;5.55;1.50;;;;;;;;;;5062612;28;20421;-78
2022/04/09 08:37:08;;;;;;;6.38;1.20;;;;;;;;;;5066511;28;20135;-77
2022/04/09 08:39:35;;;;;;;7.75;1.52;;;;;;;;;;5067319;28;20167;-76
2022/04/09 08:42:03;;;;;;;9.18;1.83;;;;;;;;;;5045989;28;20127;-76
2022/04/09 08:44:31;;;;;;;6.82;1.48;;;;;;;;;;5031085;28;20071;-78
2022/04/09 08:46:58;;;;;;;9.75;1.85;;;;;;;;;;5032291;28;20442;-77
2022/04/09 08:49:28;;;;;;;8.30;1.85;;;;;;;;;;5062702;28;20209;-77
2022/04/09 08:51:55;;;;;;;7.68;2.30;;;;;;;;;;5046646;28;20080;-78
2022/04/09 08:54:23;;;;;;;7.32;1.55;;;;;;;;;;5050719;28;20059;-80
2022/04/09 08:56:50;;;;;;;6.10;2.22;;;;;;;;;;5048083;28;20127;-81
2022/04/09 08:59:17;;;;;;;8.38;1.50;;;;;;;;;;5048009;28;20124;-81
2022/04/09 09:01:45;;;;;;;11.82;1.75;;;;;;;;;;5048106;28;20045;-81
2022/04/09 09:04:12;;;;;;;11.80;1.88;;;;;;;;;;5048247;28;20060;-81
2022/04/09 09:06:40;;;;;;;6.28;2.42;;;;;;;;;;5033204;28;20132;-81
2022/04/09 09:09:09;;;;;;;3.00;1.70;;;;;;;;;;5037107;28;20049;-81
2022/04/09 09:11:47;;;;;;;9.73;2.00;;;;;;;;;;5054436;28;20098;-80
2022/04/09 09:14:34;;;;;;;5.97;1.63;;;;;;;;;;5064739;28;20060;-76
2022/04/09 09:17:03;;;;;;;8.93;1.50;;;;;;;;;;5042708;28;20049;-77
2022/04/09 09:19:50;;;;;;;10.95;1.60;;;;;;;;;;5044683;28;20056;-76
2022/04/09 09:22:19;;;;;;;8.93;1.60;;;;;;;;;;5043727;28;20745;-76
2022/04/09 09:25:01;;;;;;;10.63;1.42;;;;;;;;;;5047351;28;20100;-78
2022/04/09 09:27:34;;;;;;;8.50;1.95;;;;;;;;;;5067037;28;20394;-78
2022/04/09 09:30:01;;;;;;;5.80;1.73;;;;;;;;;;5048738;28;20048;-78
2022/04/09 09:32:29;;;;;;;4.03;1.60;;;;;;;;;;5048922;28;20045;-77
2022/04/09 09:34:57;;;;;;;115.53;12.55;;;;;;;;;;5050933;28;20153;-77
2022/04/09 09:37:24;;;;;;;19.33;3.03;;;;;;;;;;5063836;28;20076;-80
2022/04/09 09:39:52;;;;;;;45.38;6.57;;;;;;;;;;5034048;28;20053;-75
2022/04/09 09:42:20;;;;;;;63.80;6.88;;;;;;;;;;5049467;28;20534;-75
2022/04/09 09:44:47;;;;;;;20.45;3.40;;;;;;;;;;5034351;28;20045;-74
2022/04/09 09:47:15;;;;;;;5.93;1.40;;;;;;;;;;5035250;28;20054;-76
2022/04/09 09:49:53;;;;;;;6.78;1.25;;;;;;;;;;5032241;28;20044;-76
2022/04/09 09:52:24;;;;;;;7.25;2.13;;;;;;;;;;5048364;28;20049;-77
2022/04/09 09:54:55;;;;;;;5.85;1.48;;;;;;;;;;5046972;28;20135;-76
2022/04/09 09:57:24;;;;;;;10.10;3.85;;;;;;;;;;5053567;28;20793;-76
2022/04/09 09:59:52;;;;;;;6.70;2.45;;;;;;;;;;5028939;28;20080;-76
2022/04/09 10:02:23;;;;;;;3.53;1.83;;;;;;;;;;5046059;28;20155;-77
2022/04/09 10:04:51;;;;;;;7.07;1.15;;;;;;;;;;5037157;28;20422;-76
2022/04/09 10:07:19;;;;;;;6.18;1.48;;;;;;;;;;5026281;28;20098;-76
2022/04/09 10:09:49;;;;;;;4.72;0.80;;;;;;;;;;5057095;28;20562;-76
2022/04/09 10:12:20;;;;;;;4.03;1.65;;;;;;;;;;5045694;28;20564;-75
2022/04/09 10:14:54;;;;;;;0.88;0.60;;;;;;;;;;5061175;28;20140;-75
2022/04/09 10:17:22;;;;;;;7.43;3.08;;;;;;;;;;5066061;28;20576;-76
2022/04/09 10:19:54;;;;;;;3.10;1.05;;;;;;;;;;5033210;28;20440;-76
2022/04/09 10:22:26;;;;;;;3.38;1.40;;;;;;;;;;5053285;28;20052;-75
2022/04/09 10:24:54;;;;;;;6.55;1.70;;;;;;;;;;5048341;28;20139;-78
2022/04/09 10:27:35;;;;;;;5.47;0.93;;;;;;;;;;5047261;28;20447;-78
2022/04/09 10:30:04;;;;;;;4.27;1.00;;;;;;;;;;5048702;28;20164;-78
2022/04/09 10:32:51;;;;;;;3.28;0.80;;;;;;;;;;5031117;28;20139;-77
2022/04/09 10:35:38;;;;;;;3.45;0.90;;;;;;;;;;5045853;28;20060;-76
2022/04/09 10:38:09;;;;;;;2.75;0.60;;;;;;;;;;5054174;28;20132;-77
2022/04/09 10:40:43;;;;;;;4.10;0.73;;;;;;;;;;5045260;28;20048;-76
2022/04/09 10:43:22;;;;;;;1.77;0.88;;;;;;;;;;5058986;28;20053;-78
2022/04/09 10:48:37;;;;;;;2.55;0.75;;;;;;;;;;5042493;28;20823;-77
2022/04/09 10:51:07;;;;;;;2.30;0.70;;;;;;;;;;5045405;28;20720;-76
2022/04/09 10:53:39;;;;;;;5.97;0.93;;;;;;;;;;5044985;28;20838;-77
2022/04/09 10:56:12;;;;;;;2.22;0.80;;;;;;;;;;5044445;28;20655;-77
2022/04/09 10:59:02;;;;;;;0.90;0.60;;;;;;;;;;5043787;28;20073;-77
2022/04/09 11:01:48;;;;;;;2.05;0.70;;;;;;;;;;5052159;28;20522;-77
2022/04/09 11:04:36;;;;;;;2.10;0.60;;;;;;;;;;5040980;28;20064;-75
2022/04/09 11:07:14;;;;;;;2.05;0.80;;;;;;;;;;5045893;28;20052;-75
2022/04/09 11:09:56;;;;;;;2.22;0.95;;;;;;;;;;5046712;28;20439;-75
2022/04/09 11:12:28;;;;;;;3.80;0.80;;;;;;;;;;5045067;28;20425;-76
2022/04/09 11:14:57;;;;;;;2.55;0.95;;;;;;;;;;5045508;28;20049;-76
2022/04/09 11:17:31;;;;;;;3.40;1.15;;;;;;;;;;5046915;28;20124;-75
2022/04/09 11:20:03;;;;;;;3.45;1.27;;;;;;;;;;5041882;28;20131;-75
2022/04/09 11:22:31;;;;;;;2.85;1.13;;;;;;;;;;5046537;28;20068;-76
2022/04/09 11:24:59;;;;;;;4.07;0.85;;;;;;;;;;5046708;28;20135;-76
2022/04/09 11:27:31;;;;;;;2.75;1.10;;;;;;;;;;5046864;28;20501;-76
2022/04/09 11:29:59;;;;;;;3.28;1.05;;;;;;;;;;5061320;28;20159;-75
2022/04/09 11:32:28;;;;;;;3.05;1.20;;;;;;;;;;5060113;28;20117;-79
2022/04/09 11:35:00;;;;;;;4.22;1.00;;;;;;;;;;5059975;23;20060;-76
2022/04/09 11:37:33;;;;;;;1.45;0.82;;;;;;;;;;5027762;28;20545;-79
2022/04/09 11:40:04;;;;;;;2.67;0.90;;;;;;;;;;5028644;28;20136;-82
2022/04/09 11:42:43;;;;;;;2.78;1.10;;;;;;;;;;5029448;28;20058;-80
2022/04/09 11:45:20;;;;;;;3.05;1.00;;;;;;;;;;5013174;28;20053;-80
2022/04/09 11:47:48;;;;;;;10.63;1.63;;;;;;;;;;5009494;28;20721;-81
2022/04/09 11:50:16;;;;;;;5.50;1.30;;;;;;;;;;5008289;28;20140;-79
2022/04/09 11:52:44;;;;;;;3.92;0.98;;;;;;;;;;5013575;28;20045;-79
2022/04/09 11:55:15;;;;;;;2.58;0.80;;;;;;;;;;4996747;28;20096;-81
2022/04/09 11:57:52;;;;;;;2.95;0.90;;;;;;;;;;5026266;28;20080;-78
2022/04/09 12:00:23;;;;;;;2.15;0.70;;;;;;;;;;5028260;28;20049;-81
2022/04/09 12:02:50;;;;;;;12.68;4.20;;;;;;;;;;5010620;28;20058;-77
2022/04/09 12:05:18;;;;;;;4.20;1.92;;;;;;;;;;5005722;23;20119;-77
2022/04/09 12:07:49;;;;;;;5.07;1.35;;;;;;;;;;5025705;28;20115;-78
2022/04/09 12:10:26;;;;;;;52.08;25.27;;;;;;;;;;5022481;28;20127;-76
2022/04/09 12:12:56;;;;;;;8.48;1.60;;;;;;;;;;5025151;28;20087;-76
2022/04/09 12:15:32;;;;;;;5.97;1.83;;;;;;;;;;5026474;28;20064;-76
2022/04/09 12:18:01;;;;;;;10.55;4.28;;;;;;;;;;4990643;28;20054;-76
2022/04/09 12:20:34;;;;;;;9.13;3.72;;;;;;;;;;5002868;28;20099;-75
2022/04/09 12:23:03;;;;;;;11.90;2.13;;;;;;;;;;5025981;28;20084;-79
2022/04/09 12:25:35;;;;;;;2.13;1.38;;;;;;;;;;5009086;28;20053;-76
2022/04/09 12:28:03;;;;;;;1.83;0.65;;;;;;;;;;5026874;28;20814;-77
2022/04/09 12:30:45;;;;;;;2.85;1.27;;;;;;;;;;5028709;28;20153;-77
2022/04/09 12:33:13;;;;;;;4.03;1.60;;;;;;;;;;5010474;28;20282;-76
2022/04/09 12:35:40;;;;;;;2.88;0.80;;;;;;;;;;5010280;28;20124;-75
2022/04/09 12:38:08;;;;;;;7.25;1.13;;;;;;;;;;5028123;28;20161;-75
2022/04/09 12:40:37;;;;;;;5.35;0.88;;;;;;;;;;5023033;28;20077;-76
2022/04/09 12:43:24;;;;;;;2.45;1.10;;;;;;;;;;5019970;28;20077;-75
2022/04/09 12:46:05;;;;;;;6.40;1.40;;;;;;;;;;5014032;28;20156;-76
2022/04/09 12:48:46;;;;;;;2.03;0.90;;;;;;;;;;5024596;28;20097;-75
2022/04/09 12:51:22;;;;;;;3.30;1.05;;;;;;;;;;5021404;28;20076;-75
2022/04/09 12:53:51;;;;;;;7.00;1.50;;;;;;;;;;5021234;28;20111;-76
2022/04/09 12:56:19;;;;;;;3.53;1.15;;;;;;;;;;5021732;28;20049;-76
2022/04/09 12:58:46;;;;;;;2.53;0.98;;;;;;;;;;5017660;28;20151;-76
2022/04/09 13:01:14;;;;;;;2.38;0.98;;;;;;;;;;5019434;28;20085;-76
2022/04/09 13:03:42;;;;;;;4.60;1.00;;;;;;;;;;5015778;28;20049;-76
2022/04/09 13:06:10;;;;;;;3.85;1.40;;;;;;;;;;5020517;28;20055;-75
2022/04/09 13:08:37;;;;;;;10.10;2.78;;;;;;;;;;5021949;28;20084;-76
2022/04/09 13:11:07;;;;;;;3.38;0.88;;;;;;;;;;5018888;28;20169;-76
2022/04/09 13:13:37;;;;;;;11.80;1.40;;;;;;;;;;5000670;28;20596;-76
2022/04/09 13:16:04;;;;;;;5.13;1.20;;;;;;;;;;5015842;28;20737;-76
2022/04/09 13:18:32;;;;;;;3.15;1.00;;;;;;;;;;5000756;28;20049;-76
2022/04/09 13:20:59;;;;;;;3.13;1.00;;;;;;;;;;5018576;28;20080;-77
2022/04/09 13:23:26;;;;;;;3.38;1.20;;;;;;;;;;5021339;28;20545;-76
2022/04/09 13:25:55;;;;;;;3.47;1.92;;;;;;;;;;5017928;28;20137;-76
2022/04/09 13:28:23;;;;;;;4.40;1.40;;;;;;;;;;5001163;28;20120;-76
2022/04/09 13:30:52;;;;;;;4.22;1.17;;;;;;;;;;5021452;28;20786;-76
2022/04/09 13:33:19;;;;;;;8.52;1.05;;;;;;;;;;5017475;28;20442;-76
2022/04/09 13:35:46;;;;;;;5.15;1.52;;;;;;;;;;5019371;28;20088;-76
2022/04/09 13:38:15;;;;;;;8.75;1.02;;;;;;;;;;5015336;28;20042;-76
2022/04/09 13:40:42;;;;;;;7.60;1.25;;;;;;;;;;5016399;28;20104;-76
2022/04/09 13:43:11;;;;;;;5.53;1.00;;;;;;;;;;5019230;28;20724;-76
2022/04/09 13:45:38;;;;;;;8.90;1.42;;;;;;;;;;5018232;28;20080;-76
2022/04/09 13:48:06;;;;;;;7.72;1.70;;;;;;;;;;5019924;28;20064;-76
2022/04/09 13:50:34;;;;;;;10.00;1.40;;;;;;;;;;5017531;28;21452;-75
2022/04/09 13:53:01;;;;;;;7.28;1.10;;;;;;;;;;5017293;28;20075;-75
2022/04/09 13:55:29;;;;;;;7.82;1.25;;;;;;;;;;5002171;28;20433;-76
2022/04/09 13:57:56;;;;;;;7.25;1.38;;;;;;;;;;5018819;28;20095;-76
2022/04/09 14:00:24;;;;;;;8.57;1.50;;;;;;;;;;5032701;28;20054;-76
2022/04/09 14:02:52;;;;;;;8.73;1.65;;;;;;;;;;5016352;28;20042;-76
2022/04/09 14:05:19;;;;;;;5.15;0.80;;;;;;;;;;5016988;28;20465;-76
2022/04/09 14:07:47;;;;;;;7.07;0.98;;;;;;;;;;4999925;28;20141;-75
2022/04/09 14:10:14;;;;;;;3.33;1.27;;;;;;;;;;5022672;28;20100;-75
2022/04/09 14:12:42;;;;;;;9.93;1.08;;;;;;;;;;5019814;28;20089;-75
2022/04/09 14:15:10;;;;;;;9.63;1.27;;;;;;;;;;5014425;28;20042;-76
2022/04/09 14:17:37;;;;;;;13.15;1.63;;;;;;;;;;5016684;28;20149;-77
2022/04/09 14:20:05;;;;;;;4.10;1.73;;;;;;;;;;5017413;28;20057;-76
2022/04/09 14:22:32;;;;;;;8.73;1.40;;;;;;;;;;5020979;28;20088;-77
2022/04/09 14:25:00;;;;;;;11.38;1.25;;;;;;;;;;5002331;28;20128;-76
2022/04/09 14:27:27;;;;;;;11.60;1.50;;;;;;;;;;5017455;28;20179;-76
2022/04/09 14:29:55;;;;;;;7.47;1.30;;;;;;;;;;5017169;28;20057;-76
2022/04/09 14:32:22;;;;;;;9.05;1.80;;;;;;;;;;5000985;28;20081;-76
2022/04/09 14:34:49;;;;;;;12.30;1.50;;;;;;;;;;5017007;28;20069;-75
2022/04/09 14:37:17;;;;;;;9.90;1.60;;;;;;;;;;5001243;28;20084;-76
2022/04/09 14:39:45;;;;;;;6.95;1.50;;;;;;;;;;5017462;28;20068;-76
2022/04/09 14:42:13;;;;;;;7.18;1.70;;;;;;;;;;5000896;28;20148;-76
2022/04/09 14:44:40;;;;;;;8.55;1.50;;;;;;;;;;5016794;28;20045;-76
2022/04/09 14:47:10;;;;;;;8.93;2.40;;;;;;;;;;5019457;28;20084;-76
2022/04/09 14:49:37;;;;;;;5.57;1.30;;;;;;;;;;4999204;28;20133;-75